Ituna, Canada
Current Conditions -  °F | °C
As of 11:54 PM on Thursday 27 Nov 2014 (Local Time) from CYQV Reporting Station
Overcast Overcast  
Wind Chill: -7°   Ceiling: 2000
Heat Index:   Visibility: 9mi
Dew Point:   Wind: 9mph
Humidity: 85%   Direction: 50°NE
Pressure: 30"   Gusts: NA
Location:  51.17°N, 103.5°W
Report Text: CYQV 280554Z AUTO 05008KT 9SM BKN020 OVC034 M14/M16 A3000 RMK SLP206
Loading
Personal Weather Stations






























Interactive Weather Map New forecast layout! Learn more

10-Day Weather Forecast

Advertisements
Track Severe Weather on mobile